sensor_id;sensor_type;location;lat;lon;timestamp;pressure;altitude;pressure_sealevel;temperature
14851;BMP180;7517;48.400;11.770;2023-09-12T00:01:37;96248.00;;;22.00
14851;BMP180;7517;48.400;11.770;2023-09-12T00:04:06;96241.00;;;22.00
14851;BMP180;7517;48.400;11.770;2023-09-12T00:06:33;96235.00;;;21.90
14851;BMP180;7517;48.400;11.770;2023-09-12T00:09:00;96237.00;;;21.90
14851;BMP180;7517;48.400;11.770;2023-09-12T00:11:27;96234.00;;;21.90
14851;BMP180;7517;48.400;11.770;2023-09-12T00:13:54;96234.00;;;21.90
14851;BMP180;7517;48.400;11.770;2023-09-12T00:16:22;96228.00;;;21.80
14851;BMP180;7517;48.400;11.770;2023-09-12T00:18:50;96229.00;;;21.80
14851;BMP180;7517;48.400;11.770;2023-09-12T00:21:17;96231.00;;;21.80
14851;BMP180;7517;48.400;11.770;2023-09-12T00:23:44;96219.00;;;21.80
14851;BMP180;7517;48.400;11.770;2023-09-12T00:26:11;96219.00;;;21.80
14851;BMP180;7517;48.400;11.770;2023-09-12T00:28:38;96222.00;;;21.80
14851;BMP180;7517;48.400;11.770;2023-09-12T00:31:06;96221.00;;;21.80
14851;BMP180;7517;48.400;11.770;2023-09-12T00:33:34;96222.00;;;21.70
14851;BMP180;7517;48.400;11.770;2023-09-12T00:36:01;96217.00;;;21.70
14851;BMP180;7517;48.400;11.770;2023-09-12T00:38:30;96215.00;;;21.70
14851;BMP180;7517;48.400;11.770;2023-09-12T00:40:57;96211.00;;;21.70
14851;BMP180;7517;48.400;11.770;2023-09-12T00:43:24;96204.00;;;21.70
14851;BMP180;7517;48.400;11.770;2023-09-12T00:45:52;96207.00;;;21.70
14851;BMP180;7517;48.400;11.770;2023-09-12T00:48:21;96206.00;;;21.70
14851;BMP180;7517;48.400;11.770;2023-09-12T00:50:51;96199.00;;;21.60
14851;BMP180;7517;48.400;11.770;2023-09-12T00:53:20;96203.00;;;21.60
14851;BMP180;7517;48.400;11.770;2023-09-12T00:55:54;96204.00;;;21.60
14851;BMP180;7517;48.400;11.770;2023-09-12T00:58:23;96200.00;;;21.60
14851;BMP180;7517;48.400;11.770;2023-09-12T01:00:51;96186.00;;;21.60
14851;BMP180;7517;48.400;11.770;2023-09-12T01:03:18;96194.00;;;21.50
14851;BMP180;7517;48.400;11.770;2023-09-12T01:05:47;96188.00;;;21.50
14851;BMP180;7517;48.400;11.770;2023-09-12T01:08:16;96191.00;;;21.50
14851;BMP180;7517;48.400;11.770;2023-09-12T01:10:46;96188.00;;;21.50
14851;BMP180;7517;48.400;11.770;2023-09-12T01:13:14;96196.00;;;21.40
14851;BMP180;7517;48.400;11.770;2023-09-12T01:15:42;96194.00;;;21.40
14851;BMP180;7517;48.400;11.770;2023-09-12T01:18:10;96199.00;;;21.40
14851;BMP180;7517;48.400;11.770;2023-09-12T01:20:42;96198.00;;;21.30
14851;BMP180;7517;48.400;11.770;2023-09-12T01:23:41;96188.00;;;21.30
14851;BMP180;7517;48.400;11.770;2023-09-12T01:26:39;96194.00;;;21.20
14851;BMP180;7517;48.400;11.770;2023-09-12T01:29:12;96188.00;;;21.20
14851;BMP180;7517;48.400;11.770;2023-09-12T01:31:42;96200.00;;;21.20
14851;BMP180;7517;48.400;11.770;2023-09-12T01:34:10;96191.00;;;21.20
14851;BMP180;7517;48.400;11.770;2023-09-12T01:36:38;96193.00;;;21.10
14851;BMP180;7517;48.400;11.770;2023-09-12T01:39:08;96194.00;;;21.10
14851;BMP180;7517;48.400;11.770;2023-09-12T01:41:40;96202.00;;;21.10
14851;BMP180;7517;48.400;11.770;2023-09-12T01:44:13;96202.00;;;21.00
14851;BMP180;7517;48.400;11.770;2023-09-12T01:46:43;96196.00;;;21.00
14851;BMP180;7517;48.400;11.770;2023-09-12T01:49:12;96199.00;;;21.00
14851;BMP180;7517;48.400;11.770;2023-09-12T01:51:41;96194.00;;;20.90
14851;BMP180;7517;48.400;11.770;2023-09-12T01:54:10;96197.00;;;20.90
14851;BMP180;7517;48.400;11.770;2023-09-12T01:56:38;96194.00;;;20.90
14851;BMP180;7517;48.400;11.770;2023-09-12T01:59:06;96189.00;;;20.90
14851;BMP180;7517;48.400;11.770;2023-09-12T02:01:35;96187.00;;;20.80
14851;BMP180;7517;48.400;11.770;2023-09-12T02:04:02;96194.00;;;20.80
14851;BMP180;7517;48.400;11.770;2023-09-12T02:06:34;96194.00;;;20.80
14851;BMP180;7517;48.400;11.770;2023-09-12T02:09:01;96193.00;;;20.80
14851;BMP180;7517;48.400;11.770;2023-09-12T02:11:29;96192.00;;;20.70
14851;BMP180;7517;48.400;11.770;2023-09-12T02:13:56;96193.00;;;20.70
14851;BMP180;7517;48.400;11.770;2023-09-12T02:16:23;96194.00;;;20.70
14851;BMP180;7517;48.400;11.770;2023-09-12T02:18:52;96200.00;;;20.70
14851;BMP180;7517;48.400;11.770;2023-09-12T02:21:20;96207.00;;;20.70
14851;BMP180;7517;48.400;11.770;2023-09-12T02:23:47;96204.00;;;20.70
14851;BMP180;7517;48.400;11.770;2023-09-12T02:26:14;96213.00;;;20.60
14851;BMP180;7517;48.400;11.770;2023-09-12T02:28:42;96207.00;;;20.60
14851;BMP180;7517;48.400;11.770;2023-09-12T02:31:10;96210.00;;;20.60
14851;BMP180;7517;48.400;11.770;2023-09-12T02:33:38;96206.00;;;20.60
14851;BMP180;7517;48.400;11.770;2023-09-12T02:36:07;96199.00;;;20.60
14851;BMP180;7517;48.400;11.770;2023-09-12T02:38:34;96201.00;;;20.60
14851;BMP180;7517;48.400;11.770;2023-09-12T02:41:01;96214.00;;;20.50
14851;BMP180;7517;48.400;11.770;2023-09-12T02:43:29;96207.00;;;20.50
14851;BMP180;7517;48.400;11.770;2023-09-12T02:45:56;96216.00;;;20.50
14851;BMP180;7517;48.400;11.770;2023-09-12T02:48:23;96223.00;;;20.50
14851;BMP180;7517;48.400;11.770;2023-09-12T02:50:50;96221.00;;;20.40
14851;BMP180;7517;48.400;11.770;2023-09-12T02:53:19;96218.00;;;20.40
14851;BMP180;7517;48.400;11.770;2023-09-12T02:55:46;96214.00;;;20.40
14851;BMP180;7517;48.400;11.770;2023-09-12T02:58:13;96215.00;;;20.40
14851;BMP180;7517;48.400;11.770;2023-09-12T03:00:40;96207.00;;;20.40
14851;BMP180;7517;48.400;11.770;2023-09-12T03:03:08;96203.00;;;20.30
14851;BMP180;7517;48.400;11.770;2023-09-12T03:05:35;96204.00;;;20.30
14851;BMP180;7517;48.400;11.770;2023-09-12T03:08:03;96208.00;;;20.30
14851;BMP180;7517;48.400;11.770;2023-09-12T03:10:32;96202.00;;;20.30
14851;BMP180;7517;48.400;11.770;2023-09-12T03:12:59;96209.00;;;20.30
14851;BMP180;7517;48.400;11.770;2023-09-12T03:15:26;96206.00;;;20.20
14851;BMP180;7517;48.400;11.770;2023-09-12T03:17:54;96210.00;;;20.20
14851;BMP180;7517;48.400;11.770;2023-09-12T03:20:21;96210.00;;;20.20
14851;BMP180;7517;48.400;11.770;2023-09-12T03:22:49;96208.00;;;20.20
14851;BMP180;7517;48.400;11.770;2023-09-12T03:25:16;96207.00;;;20.10
14851;BMP180;7517;48.400;11.770;2023-09-12T03:27:45;96210.00;;;20.10
14851;BMP180;7517;48.400;11.770;2023-09-12T03:30:12;96200.00;;;20.10
14851;BMP180;7517;48.400;11.770;2023-09-12T03:32:39;96200.00;;;20.10
14851;BMP180;7517;48.400;11.770;2023-09-12T03:35:08;96203.00;;;20.10
14851;BMP180;7517;48.400;11.770;2023-09-12T03:37:37;96201.00;;;20.10
14851;BMP180;7517;48.400;11.770;2023-09-12T03:40:10;96205.00;;;20.10
14851;BMP180;7517;48.400;11.770;2023-09-12T03:42:38;96206.00;;;20.00
14851;BMP180;7517;48.400;11.770;2023-09-12T03:45:09;96197.00;;;20.00
14851;BMP180;7517;48.400;11.770;2023-09-12T03:47:36;96203.00;;;20.00
14851;BMP180;7517;48.400;11.770;2023-09-12T03:50:05;96196.00;;;20.00
14851;BMP180;7517;48.400;11.770;2023-09-12T03:52:33;96199.00;;;20.00
14851;BMP180;7517;48.400;11.770;2023-09-12T03:55:00;96192.00;;;20.00
14851;BMP180;7517;48.400;11.770;2023-09-12T03:57:27;96204.00;;;20.00
14851;BMP180;7517;48.400;11.770;2023-09-12T03:59:54;96192.00;;;20.00
14851;BMP180;7517;48.400;11.770;2023-09-12T04:02:24;96187.00;;;19.90
14851;BMP180;7517;48.400;11.770;2023-09-12T04:04:51;96201.00;;;19.90
14851;BMP180;7517;48.400;11.770;2023-09-12T04:07:19;96201.00;;;19.90
14851;BMP180;7517;48.400;11.770;2023-09-12T04:09:46;96207.00;;;19.90
14851;BMP180;7517;48.400;11.770;2023-09-12T04:12:13;96207.00;;;19.90
14851;BMP180;7517;48.400;11.770;2023-09-12T04:14:40;96207.00;;;19.90
14851;BMP180;7517;48.400;11.770;2023-09-12T04:17:07;96206.00;;;19.80
14851;BMP180;7517;48.400;11.770;2023-09-12T04:19:37;96210.00;;;19.80
14851;BMP180;7517;48.400;11.770;2023-09-12T04:22:05;96210.00;;;19.80
14851;BMP180;7517;48.400;11.770;2023-09-12T04:24:34;96212.00;;;19.80
14851;BMP180;7517;48.400;11.770;2023-09-12T04:27:01;96216.00;;;19.70
14851;BMP180;7517;48.400;11.770;2023-09-12T04:29:29;96219.00;;;19.80
14851;BMP180;7517;48.400;11.770;2023-09-12T04:31:56;96213.00;;;19.70
14851;BMP180;7517;48.400;11.770;2023-09-12T04:34:25;96214.00;;;19.70
14851;BMP180;7517;48.400;11.770;2023-09-12T04:36:54;96211.00;;;19.70
14851;BMP180;7517;48.400;11.770;2023-09-12T04:39:21;96211.00;;;19.70
14851;BMP180;7517;48.400;11.770;2023-09-12T04:41:49;96208.00;;;19.70
14851;BMP180;7517;48.400;11.770;2023-09-12T04:44:16;96212.00;;;19.70
14851;BMP180;7517;48.400;11.770;2023-09-12T04:46:43;96207.00;;;19.70
14851;BMP180;7517;48.400;11.770;2023-09-12T04:49:10;96213.00;;;19.70
14851;BMP180;7517;48.400;11.770;2023-09-12T04:51:37;96215.00;;;19.70
14851;BMP180;7517;48.400;11.770;2023-09-12T04:54:06;96204.00;;;19.60
14851;BMP180;7517;48.400;11.770;2023-09-12T04:56:33;96215.00;;;19.60
14851;BMP180;7517;48.400;11.770;2023-09-12T04:59:00;96214.00;;;19.60
14851;BMP180;7517;48.400;11.770;2023-09-12T05:01:28;96217.00;;;19.60
14851;BMP180;7517;48.400;11.770;2023-09-12T05:03:55;96205.00;;;19.60
14851;BMP180;7517;48.400;11.770;2023-09-12T05:06:23;96208.00;;;19.60
14851;BMP180;7517;48.400;11.770;2023-09-12T05:08:50;96207.00;;;19.60
14851;BMP180;7517;48.400;11.770;2023-09-12T05:11:19;96211.00;;;19.60
14851;BMP180;7517;48.400;11.770;2023-09-12T05:13:46;96213.00;;;19.60
14851;BMP180;7517;48.400;11.770;2023-09-12T05:16:13;96210.00;;;19.60
14851;BMP180;7517;48.400;11.770;2023-09-12T05:18:40;96218.00;;;19.70
14851;BMP180;7517;48.400;11.770;2023-09-12T05:21:07;96219.00;;;19.70
14851;BMP180;7517;48.400;11.770;2023-09-12T05:23:34;96219.00;;;19.70
14851;BMP180;7517;48.400;11.770;2023-09-12T05:26:02;96219.00;;;19.70
14851;BMP180;7517;48.400;11.770;2023-09-12T05:28:31;96221.00;;;19.70
14851;BMP180;7517;48.400;11.770;2023-09-12T05:30:58;96218.00;;;19.70
14851;BMP180;7517;48.400;11.770;2023-09-12T05:33:25;96220.00;;;19.70
14851;BMP180;7517;48.400;11.770;2023-09-12T05:35:52;96233.00;;;19.70
14851;BMP180;7517;48.400;11.770;2023-09-12T05:38:20;96219.00;;;19.70
14851;BMP180;7517;48.400;11.770;2023-09-12T05:40:48;96230.00;;;19.70
14851;BMP180;7517;48.400;11.770;2023-09-12T05:43:16;96232.00;;;19.70
14851;BMP180;7517;48.400;11.770;2023-09-12T05:45:44;96234.00;;;19.70
14851;BMP180;7517;48.400;11.770;2023-09-12T05:48:11;96232.00;;;19.70
14851;BMP180;7517;48.400;11.770;2023-09-12T05:50:39;96241.00;;;19.80
14851;BMP180;7517;48.400;11.770;2023-09-12T05:53:08;96236.00;;;19.80
14851;BMP180;7517;48.400;11.770;2023-09-12T05:55:36;96242.00;;;19.80
14851;BMP180;7517;48.400;11.770;2023-09-12T05:58:03;96240.00;;;19.80
14851;BMP180;7517;48.400;11.770;2023-09-12T06:00:31;96237.00;;;19.90
14851;BMP180;7517;48.400;11.770;2023-09-12T06:03:00;96248.00;;;19.90
14851;BMP180;7517;48.400;11.770;2023-09-12T06:05:27;96245.00;;;20.00
14851;BMP180;7517;48.400;11.770;2023-09-12T06:07:55;96250.00;;;20.00
14851;BMP180;7517;48.400;11.770;2023-09-12T06:10:22;96250.00;;;20.10
14851;BMP180;7517;48.400;11.770;2023-09-12T06:12:49;96250.00;;;20.10
14851;BMP180;7517;48.400;11.770;2023-09-12T06:15:17;96262.00;;;20.20
14851;BMP180;7517;48.400;11.770;2023-09-12T06:17:44;96248.00;;;20.20
14851;BMP180;7517;48.400;11.770;2023-09-12T06:20:13;96248.00;;;20.30
14851;BMP180;7517;48.400;11.770;2023-09-12T06:22:40;96248.00;;;20.30
14851;BMP180;7517;48.400;11.770;2023-09-12T06:25:09;96252.00;;;20.40
14851;BMP180;7517;48.400;11.770;2023-09-12T06:27:36;96252.00;;;20.50
14851;BMP180;7517;48.400;11.770;2023-09-12T06:30:04;96256.00;;;20.50
14851;BMP180;7517;48.400;11.770;2023-09-12T06:32:32;96244.00;;;20.60
14851;BMP180;7517;48.400;11.770;2023-09-12T06:34:59;96256.00;;;20.70
14851;BMP180;7517;48.400;11.770;2023-09-12T06:37:27;96257.00;;;20.70
14851;BMP180;7517;48.400;11.770;2023-09-12T06:39:55;96258.00;;;20.80
14851;BMP180;7517;48.400;11.770;2023-09-12T06:42:22;96257.00;;;20.80
14851;BMP180;7517;48.400;11.770;2023-09-12T06:44:49;96259.00;;;20.90
14851;BMP180;7517;48.400;11.770;2023-09-12T06:47:16;96260.00;;;21.00
14851;BMP180;7517;48.400;11.770;2023-09-12T06:49:43;96257.00;;;21.10
14851;BMP180;7517;48.400;11.770;2023-09-12T06:52:10;96255.00;;;21.10
14851;BMP180;7517;48.400;11.770;2023-09-12T06:54:40;96255.00;;;21.20
14851;BMP180;7517;48.400;11.770;2023-09-12T06:57:07;96262.00;;;21.30
14851;BMP180;7517;48.400;11.770;2023-09-12T06:59:35;96259.00;;;21.40
14851;BMP180;7517;48.400;11.770;2023-09-12T07:02:03;96256.00;;;21.40
14851;BMP180;7517;48.400;11.770;2023-09-12T07:04:30;96254.00;;;21.50
14851;BMP180;7517;48.400;11.770;2023-09-12T07:06:57;96266.00;;;21.60
14851;BMP180;7517;48.400;11.770;2023-09-12T07:09:24;96263.00;;;21.70
14851;BMP180;7517;48.400;11.770;2023-09-12T07:11:53;96262.00;;;21.80
14851;BMP180;7517;48.400;11.770;2023-09-12T07:14:20;96261.00;;;21.90
14851;BMP180;7517;48.400;11.770;2023-09-12T07:16:48;96261.00;;;21.90
14851;BMP180;7517;48.400;11.770;2023-09-12T07:19:16;96266.00;;;22.00
14851;BMP180;7517;48.400;11.770;2023-09-12T07:21:44;96267.00;;;22.10
14851;BMP180;7517;48.400;11.770;2023-09-12T07:24:11;96261.00;;;22.20
14851;BMP180;7517;48.400;11.770;2023-09-12T07:26:38;96272.00;;;22.30
14851;BMP180;7517;48.400;11.770;2023-09-12T07:29:07;96265.00;;;22.40
14851;BMP180;7517;48.400;11.770;2023-09-12T07:31:34;96276.00;;;22.50
14851;BMP180;7517;48.400;11.770;2023-09-12T07:34:02;96275.00;;;22.60
14851;BMP180;7517;48.400;11.770;2023-09-12T07:36:29;96279.00;;;22.70
14851;BMP180;7517;48.400;11.770;2023-09-12T07:38:56;96276.00;;;22.90
14851;BMP180;7517;48.400;11.770;2023-09-12T07:41:24;96278.00;;;23.00
14851;BMP180;7517;48.400;11.770;2023-09-12T07:43:51;96279.00;;;23.10
14851;BMP180;7517;48.400;11.770;2023-09-12T07:46:20;96287.00;;;23.30
14851;BMP180;7517;48.400;11.770;2023-09-12T07:48:47;96280.00;;;23.40
14851;BMP180;7517;48.400;11.770;2023-09-12T07:51:15;96281.00;;;23.50
14851;BMP180;7517;48.400;11.770;2023-09-12T07:53:44;96282.00;;;23.70
14851;BMP180;7517;48.400;11.770;2023-09-12T07:56:11;96279.00;;;23.80
14851;BMP180;7517;48.400;11.770;2023-09-12T07:58:38;96285.00;;;24.00
14851;BMP180;7517;48.400;11.770;2023-09-12T08:01:06;96284.00;;;24.10
14851;BMP180;7517;48.400;11.770;2023-09-12T08:03:35;96290.00;;;24.20
14851;BMP180;7517;48.400;11.770;2023-09-12T08:06:04;96287.00;;;24.30
14851;BMP180;7517;48.400;11.770;2023-09-12T08:08:32;96289.00;;;24.50
14851;BMP180;7517;48.400;11.770;2023-09-12T08:10:59;96289.00;;;24.60
14851;BMP180;7517;48.400;11.770;2023-09-12T08:13:28;96289.00;;;24.70
14851;BMP180;7517;48.400;11.770;2023-09-12T08:15:56;96283.00;;;24.80
14851;BMP180;7517;48.400;11.770;2023-09-12T08:18:28;96291.00;;;25.00
14851;BMP180;7517;48.400;11.770;2023-09-12T08:20:57;96290.00;;;25.10
14851;BMP180;7517;48.400;11.770;2023-09-12T08:23:24;96294.00;;;25.30
14851;BMP180;7517;48.400;11.770;2023-09-12T08:25:51;96291.00;;;25.40
14851;BMP180;7517;48.400;11.770;2023-09-12T08:28:19;96299.00;;;25.50
14851;BMP180;7517;48.400;11.770;2023-09-12T08:30:46;96291.00;;;25.60
14851;BMP180;7517;48.400;11.770;2023-09-12T08:33:13;96294.00;;;25.80
14851;BMP180;7517;48.400;11.770;2023-09-12T08:35:40;96301.00;;;25.90
14851;BMP180;7517;48.400;11.770;2023-09-12T08:38:09;96291.00;;;26.00
14851;BMP180;7517;48.400;11.770;2023-09-12T08:40:37;96297.00;;;26.20
14851;BMP180;7517;48.400;11.770;2023-09-12T08:43:05;96291.00;;;26.30
14851;BMP180;7517;48.400;11.770;2023-09-12T08:45:32;96298.00;;;26.40
14851;BMP180;7517;48.400;11.770;2023-09-12T08:48:01;96297.00;;;26.60
14851;BMP180;7517;48.400;11.770;2023-09-12T08:50:30;96296.00;;;26.70
14851;BMP180;7517;48.400;11.770;2023-09-12T08:53:00;96288.00;;;26.90
14851;BMP180;7517;48.400;11.770;2023-09-12T08:55:29;96287.00;;;27.00
14851;BMP180;7517;48.400;11.770;2023-09-12T08:57:58;96296.00;;;27.10
14851;BMP180;7517;48.400;11.770;2023-09-12T09:00:28;96296.00;;;27.20
14851;BMP180;7517;48.400;11.770;2023-09-12T09:02:55;96297.00;;;27.40
14851;BMP180;7517;48.400;11.770;2023-09-12T09:05:24;96295.00;;;27.50
14851;BMP180;7517;48.400;11.770;2023-09-12T09:07:52;96294.00;;;27.60
14851;BMP180;7517;48.400;11.770;2023-09-12T09:10:23;96293.00;;;27.70
14851;BMP180;7517;48.400;11.770;2023-09-12T09:12:54;96293.00;;;27.80
14851;BMP180;7517;48.400;11.770;2023-09-12T09:15:23;96292.00;;;28.00
14851;BMP180;7517;48.400;11.770;2023-09-12T09:17:52;96292.00;;;28.10
14851;BMP180;7517;48.400;11.770;2023-09-12T09:20:31;96295.00;;;28.20
14851;BMP180;7517;48.400;11.770;2023-09-12T09:23:02;96290.00;;;28.40
14851;BMP180;7517;48.400;11.770;2023-09-12T09:25:32;96296.00;;;28.50
14851;BMP180;7517;48.400;11.770;2023-09-12T09:28:03;96285.00;;;28.70
14851;BMP180;7517;48.400;11.770;2023-09-12T09:30:43;96289.00;;;28.80
14851;BMP180;7517;48.400;11.770;2023-09-12T09:33:12;96283.00;;;28.90
14851;BMP180;7517;48.400;11.770;2023-09-12T09:35:43;96295.00;;;29.10
14851;BMP180;7517;48.400;11.770;2023-09-12T09:38:12;96290.00;;;29.20
14851;BMP180;7517;48.400;11.770;2023-09-12T09:40:43;96287.00;;;29.30
14851;BMP180;7517;48.400;11.770;2023-09-12T09:43:12;96286.00;;;29.40
14851;BMP180;7517;48.400;11.770;2023-09-12T09:45:45;96285.00;;;29.50
14851;BMP180;7517;48.400;11.770;2023-09-12T09:48:18;96289.00;;;29.60
14851;BMP180;7517;48.400;11.770;2023-09-12T09:50:46;96276.00;;;29.80
14851;BMP180;7517;48.400;11.770;2023-09-12T09:53:14;96281.00;;;29.80
14851;BMP180;7517;48.400;11.770;2023-09-12T09:55:41;96278.00;;;30.00
14851;BMP180;7517;48.400;11.770;2023-09-12T09:58:08;96284.00;;;30.10
14851;BMP180;7517;48.400;11.770;2023-09-12T10:00:38;96278.00;;;30.10
14851;BMP180;7517;48.400;11.770;2023-09-12T10:03:06;96273.00;;;30.30
14851;BMP180;7517;48.400;11.770;2023-09-12T10:05:37;96273.00;;;30.40
14851;BMP180;7517;48.400;11.770;2023-09-12T10:08:07;96273.00;;;30.50
14851;BMP180;7517;48.400;11.770;2023-09-12T10:10:38;96273.00;;;30.60
14851;BMP180;7517;48.400;11.770;2023-09-12T10:13:08;96275.00;;;30.60
14851;BMP180;7517;48.400;11.770;2023-09-12T10:15:38;96267.00;;;30.70
14851;BMP180;7517;48.400;11.770;2023-09-12T10:18:09;96275.00;;;30.80
14851;BMP180;7517;48.400;11.770;2023-09-12T10:20:50;96269.00;;;30.80
14851;BMP180;7517;48.400;11.770;2023-09-12T10:23:24;96269.00;;;30.90
14851;BMP180;7517;48.400;11.770;2023-09-12T10:25:55;96266.00;;;31.00
14851;BMP180;7517;48.400;11.770;2023-09-12T10:28:24;96262.00;;;31.00
14851;BMP180;7517;48.400;11.770;2023-09-12T10:30:55;96261.00;;;31.10
14851;BMP180;7517;48.400;11.770;2023-09-12T10:33:24;96265.00;;;31.20
14851;BMP180;7517;48.400;11.770;2023-09-12T10:35:58;96264.00;;;31.30
14851;BMP180;7517;48.400;11.770;2023-09-12T10:38:28;96263.00;;;31.30
14851;BMP180;7517;48.400;11.770;2023-09-12T10:40:57;96262.00;;;31.40
14851;BMP180;7517;48.400;11.770;2023-09-12T10:43:26;96261.00;;;31.50
14851;BMP180;7517;48.400;11.770;2023-09-12T10:45:56;96258.00;;;31.50
14851;BMP180;7517;48.400;11.770;2023-09-12T10:48:25;96253.00;;;31.50
14851;BMP180;7517;48.400;11.770;2023-09-12T10:50:56;96250.00;;;31.60
14851;BMP180;7517;48.400;11.770;2023-09-12T10:53:26;96252.00;;;31.60
14851;BMP180;7517;48.400;11.770;2023-09-12T10:56:15;96251.00;;;31.60
14851;BMP180;7517;48.400;11.770;2023-09-12T10:59:12;96254.00;;;31.60
14851;BMP180;7517;48.400;11.770;2023-09-12T11:01:44;96256.00;;;31.60
14851;BMP180;7517;48.400;11.770;2023-09-12T11:04:32;96252.00;;;31.60
14851;BMP180;7517;48.400;11.770;2023-09-12T11:07:32;96252.00;;;31.60
14851;BMP180;7517;48.400;11.770;2023-09-12T11:10:20;96251.00;;;31.60
14851;BMP180;7517;48.400;11.770;2023-09-12T11:12:49;96253.00;;;31.50
14851;BMP180;7517;48.400;11.770;2023-09-12T11:15:19;96250.00;;;31.60
14851;BMP180;7517;48.400;11.770;2023-09-12T11:17:59;96248.00;;;31.50
14851;BMP180;7517;48.400;11.770;2023-09-12T11:20:50;96250.00;;;31.50
14851;BMP180;7517;48.400;11.770;2023-09-12T11:23:18;96248.00;;;31.50
14851;BMP180;7517;48.400;11.770;2023-09-12T11:25:46;96246.00;;;31.50
14851;BMP180;7517;48.400;11.770;2023-09-12T11:28:13;96248.00;;;31.50
14851;BMP180;7517;48.400;11.770;2023-09-12T11:30:56;96248.00;;;31.50
14851;BMP180;7517;48.400;11.770;2023-09-12T11:33:26;96244.00;;;31.50
14851;BMP180;7517;48.400;11.770;2023-09-12T11:35:55;96248.00;;;31.50
14851;BMP180;7517;48.400;11.770;2023-09-12T11:38:27;96244.00;;;31.50
14851;BMP180;7517;48.400;11.770;2023-09-12T11:40:56;96247.00;;;31.60
14851;BMP180;7517;48.400;11.770;2023-09-12T11:43:25;96245.00;;;31.60
14851;BMP180;7517;48.400;11.770;2023-09-12T11:45:55;96246.00;;;31.60
14851;BMP180;7517;48.400;11.770;2023-09-12T11:48:22;96251.00;;;31.60
14851;BMP180;7517;48.400;11.770;2023-09-12T11:50:54;96248.00;;;31.60
14851;BMP180;7517;48.400;11.770;2023-09-12T11:53:24;96250.00;;;31.60
14851;BMP180;7517;48.400;11.770;2023-09-12T11:55:54;96244.00;;;31.60
14851;BMP180;7517;48.400;11.770;2023-09-12T11:58:25;96251.00;;;31.60
14851;BMP180;7517;48.400;11.770;2023-09-12T12:00:54;96247.00;;;31.70
14851;BMP180;7517;48.400;11.770;2023-09-12T12:03:24;96246.00;;;31.70
14851;BMP180;7517;48.400;11.770;2023-09-12T12:05:54;96242.00;;;31.70
14851;BMP180;7517;48.400;11.770;2023-09-12T12:08:21;96243.00;;;31.70
14851;BMP180;7517;48.400;11.770;2023-09-12T12:10:53;96244.00;;;31.70
14851;BMP180;7517;48.400;11.770;2023-09-12T12:13:22;96241.00;;;31.70
14851;BMP180;7517;48.400;11.770;2023-09-12T12:15:50;96235.00;;;31.70
14851;BMP180;7517;48.400;11.770;2023-09-12T12:18:18;96240.00;;;31.80
14851;BMP180;7517;48.400;11.770;2023-09-12T12:20:45;96235.00;;;31.80
14851;BMP180;7517;48.400;11.770;2023-09-12T12:23:14;96233.00;;;31.80
14851;BMP180;7517;48.400;11.770;2023-09-12T12:25:41;96233.00;;;31.80
14851;BMP180;7517;48.400;11.770;2023-09-12T12:28:09;96230.00;;;31.80
14851;BMP180;7517;48.400;11.770;2023-09-12T12:30:36;96228.00;;;31.80
14851;BMP180;7517;48.400;11.770;2023-09-12T12:33:08;96222.00;;;31.70
14851;BMP180;7517;48.400;11.770;2023-09-12T12:35:36;96229.00;;;31.70
14851;BMP180;7517;48.400;11.770;2023-09-12T12:38:03;96220.00;;;31.70
14851;BMP180;7517;48.400;11.770;2023-09-12T12:40:37;96219.00;;;31.70
14851;BMP180;7517;48.400;11.770;2023-09-12T12:43:16;96220.00;;;31.70
14851;BMP180;7517;48.400;11.770;2023-09-12T12:45:53;96219.00;;;31.80
14851;BMP180;7517;48.400;11.770;2023-09-12T12:48:30;96211.00;;;31.70
14851;BMP180;7517;48.400;11.770;2023-09-12T12:51:05;96212.00;;;31.70
14851;BMP180;7517;48.400;11.770;2023-09-12T12:53:39;96207.00;;;31.70
14851;BMP180;7517;48.400;11.770;2023-09-12T12:56:12;96205.00;;;31.80
14851;BMP180;7517;48.400;11.770;2023-09-12T12:58:45;96205.00;;;31.70
14851;BMP180;7517;48.400;11.770;2023-09-12T13:01:13;96206.00;;;31.80
14851;BMP180;7517;48.400;11.770;2023-09-12T13:03:40;96206.00;;;31.80
14851;BMP180;7517;48.400;11.770;2023-09-12T13:06:08;96201.00;;;31.80
14851;BMP180;7517;48.400;11.770;2023-09-12T13:08:40;96202.00;;;31.80
14851;BMP180;7517;48.400;11.770;2023-09-12T13:11:10;96199.00;;;31.80
14851;BMP180;7517;48.400;11.770;2023-09-12T13:13:38;96198.00;;;31.80
14851;BMP180;7517;48.400;11.770;2023-09-12T13:16:07;96201.00;;;31.80
14851;BMP180;7517;48.400;11.770;2023-09-12T13:18:36;96195.00;;;31.80
14851;BMP180;7517;48.400;11.770;2023-09-12T13:21:04;96187.00;;;31.80
14851;BMP180;7517;48.400;11.770;2023-09-12T13:23:35;96184.00;;;31.80
14851;BMP180;7517;48.400;11.770;2023-09-12T13:26:03;96179.00;;;31.80
14851;BMP180;7517;48.400;11.770;2023-09-12T13:28:32;96178.00;;;31.80
14851;BMP180;7517;48.400;11.770;2023-09-12T13:31:00;96182.00;;;31.80
14851;BMP180;7517;48.400;11.770;2023-09-12T13:33:27;96174.00;;;31.80
14851;BMP180;7517;48.400;11.770;2023-09-12T13:35:54;96175.00;;;31.80
14851;BMP180;7517;48.400;11.770;2023-09-12T13:38:21;96169.00;;;31.80
14851;BMP180;7517;48.400;11.770;2023-09-12T13:40:49;96174.00;;;31.80
14851;BMP180;7517;48.400;11.770;2023-09-12T13:43:16;96173.00;;;31.80
14851;BMP180;7517;48.400;11.770;2023-09-12T13:45:45;96171.00;;;31.70
14851;BMP180;7517;48.400;11.770;2023-09-12T13:48:12;96175.00;;;31.70
14851;BMP180;7517;48.400;11.770;2023-09-12T13:50:40;96168.00;;;31.70
14851;BMP180;7517;48.400;11.770;2023-09-12T13:53:08;96170.00;;;31.70
14851;BMP180;7517;48.400;11.770;2023-09-12T13:55:36;96166.00;;;31.70
14851;BMP180;7517;48.400;11.770;2023-09-12T13:58:05;96166.00;;;31.70
14851;BMP180;7517;48.400;11.770;2023-09-12T14:00:34;96161.00;;;31.70
14851;BMP180;7517;48.400;11.770;2023-09-12T14:03:04;96169.00;;;31.70
14851;BMP180;7517;48.400;11.770;2023-09-12T14:05:31;96165.00;;;31.60
14851;BMP180;7517;48.400;11.770;2023-09-12T14:07:59;96161.00;;;31.60
14851;BMP180;7517;48.400;11.770;2023-09-12T14:10:27;96165.00;;;31.60
14851;BMP180;7517;48.400;11.770;2023-09-12T14:12:54;96156.00;;;31.60
14851;BMP180;7517;48.400;11.770;2023-09-12T14:15:22;96157.00;;;31.60
14851;BMP180;7517;48.400;11.770;2023-09-12T14:17:50;96156.00;;;31.60
14851;BMP180;7517;48.400;11.770;2023-09-12T14:20:19;96161.00;;;31.60